createdAt,value
2022-08-27T00:02:19.195Z,18.60
2022-08-27T00:04:48.396Z,18.60
2022-08-27T00:07:18.003Z,18.60
2022-08-27T00:09:46.441Z,18.60
2022-08-27T00:12:14.978Z,18.60
2022-08-27T00:14:43.447Z,18.60
2022-08-27T00:17:12.471Z,18.80
2022-08-27T00:19:42.640Z,18.60
2022-08-27T00:22:11.989Z,18.60
2022-08-27T00:24:48.657Z,18.60
2022-08-27T00:27:18.183Z,18.60
2022-08-27T00:29:47.076Z,18.60
2022-08-27T00:32:15.753Z,18.60
2022-08-27T00:34:45.876Z,18.70
2022-08-27T00:37:14.836Z,18.60
2022-08-27T00:39:43.321Z,18.60
2022-08-27T00:42:11.870Z,18.60
2022-08-27T00:44:40.429Z,18.60
2022-08-27T00:47:13.539Z,18.50
2022-08-27T00:49:46.058Z,18.50
2022-08-27T00:52:21.237Z,18.60
2022-08-27T00:54:52.278Z,18.50
2022-08-27T00:57:21.628Z,18.50
2022-08-27T00:59:50.215Z,18.70
2022-08-27T01:02:21.486Z,18.50
2022-08-27T01:04:55.393Z,18.50
2022-08-27T01:07:28.617Z,18.50
2022-08-27T01:10:00.268Z,18.60
2022-08-27T01:12:31.148Z,18.30
2022-08-27T01:15:00.943Z,18.40
2022-08-27T01:17:29.740Z,18.40
2022-08-27T01:20:03.190Z,18.40
2022-08-27T01:22:36.653Z,18.50
2022-08-27T01:25:09.852Z,18.40
2022-08-27T01:27:39.995Z,18.40
2022-08-27T01:30:10.214Z,18.40
2022-08-27T01:32:39.608Z,18.30
2022-08-27T01:35:10.799Z,18.40
2022-08-27T01:37:40.037Z,18.30
2022-08-27T01:40:13.444Z,18.40
2022-08-27T01:42:44.775Z,18.40
2022-08-27T01:45:15.389Z,18.30
2022-08-27T01:47:44.134Z,18.30
2022-08-27T01:50:15.183Z,18.30
2022-08-27T01:52:44.819Z,18.30
2022-08-27T01:55:17.045Z,18.30
2022-08-27T01:57:45.845Z,18.30
2022-08-27T02:00:18.537Z,18.30
2022-08-27T02:02:48.051Z,18.30
2022-08-27T02:05:17.416Z,18.40
2022-08-27T02:07:46.396Z,18.30
2022-08-27T02:10:19.516Z,18.30
2022-08-27T02:12:48.327Z,18.30
2022-08-27T02:15:17.997Z,18.30
2022-08-27T02:17:47.855Z,18.30
2022-08-27T02:20:17.179Z,18.30
2022-08-27T02:22:46.022Z,18.20
2022-08-27T02:25:19.996Z,18.20
2022-08-27T02:27:49.956Z,18.20
2022-08-27T02:30:21.463Z,18.20
2022-08-27T02:32:50.153Z,18.20
2022-08-27T02:35:19.975Z,18.10
2022-08-27T02:37:48.760Z,18.20
2022-08-27T02:40:20.199Z,18.20
2022-08-27T02:42:48.815Z,18.20
2022-08-27T02:45:18.008Z,18.10
2022-08-27T02:47:46.438Z,18.20
2022-08-27T02:50:15.482Z,18.30
2022-08-27T02:52:46.422Z,18.30
2022-08-27T02:55:17.246Z,18.10
2022-08-27T02:57:47.451Z,18.10
2022-08-27T03:00:20.847Z,18.20
2022-08-27T03:02:49.920Z,18.10
2022-08-27T03:05:19.828Z,18.20
2022-08-27T03:07:49.481Z,18.10
2022-08-27T03:10:20.316Z,18.30
2022-08-27T03:12:50.368Z,18.10
2022-08-27T03:15:20.547Z,18.10
2022-08-27T03:18:06.302Z,18.10
2022-08-27T03:20:38.287Z,18.10
2022-08-27T03:23:06.735Z,18.10
2022-08-27T03:25:35.170Z,18.10
2022-08-27T03:28:06.489Z,18.10
2022-08-27T03:30:53.034Z,18.10
2022-08-27T03:33:22.346Z,17.90
2022-08-27T03:35:52.120Z,17.90
2022-08-27T03:38:21.467Z,17.90
2022-08-27T03:40:50.556Z,17.80
2022-08-27T03:43:22.071Z,17.70
2022-08-27T03:46:00.604Z,17.70
2022-08-27T03:48:31.775Z,17.60
2022-08-27T03:51:00.981Z,17.60
2022-08-27T03:53:29.422Z,17.50
2022-08-27T03:55:57.864Z,17.40
2022-08-27T03:58:28.112Z,17.40
2022-08-27T04:00:56.589Z,17.30
2022-08-27T04:03:25.054Z,17.30
2022-08-27T04:05:54.741Z,17.20
2022-08-27T04:08:23.540Z,17.20
2022-08-27T04:10:52.784Z,17.10
2022-08-27T04:13:21.800Z,17.10
2022-08-27T04:15:53.724Z,17.10
2022-08-27T04:18:22.229Z,17.10
2022-08-27T04:20:53.496Z,17.10
2022-08-27T04:23:22.340Z,17.10
2022-08-27T04:25:50.912Z,17.10
2022-08-27T04:28:19.372Z,17.10
2022-08-27T04:30:48.517Z,17.10
2022-08-27T04:33:18.548Z,17.00
2022-08-27T04:35:47.005Z,17.00
2022-08-27T04:38:15.755Z,17.00
2022-08-27T04:41:01.585Z,17.00
2022-08-27T04:43:30.057Z,17.00
2022-08-27T04:45:58.488Z,17.00
2022-08-27T04:48:28.444Z,17.00
2022-08-27T04:50:57.636Z,17.10
2022-08-27T04:53:26.257Z,17.00
2022-08-27T04:55:56.928Z,17.20
2022-08-27T04:58:26.339Z,17.10
2022-08-27T05:01:01.432Z,17.10
2022-08-27T05:03:31.365Z,17.10
2022-08-27T05:06:05.015Z,17.10
2022-08-27T05:08:34.216Z,17.10
2022-08-27T05:11:03.172Z,17.10
2022-08-27T05:13:31.626Z,17.10
2022-08-27T05:16:01.621Z,17.20
2022-08-27T05:18:35.235Z,17.20
2022-08-27T05:21:07.574Z,17.10
2022-08-27T05:23:41.266Z,17.20
2022-08-27T05:26:09.842Z,17.20
2022-08-27T05:28:38.338Z,17.20
2022-08-27T05:31:09.738Z,17.20
2022-08-27T05:33:40.248Z,17.20
2022-08-27T05:36:15.524Z,17.20
2022-08-27T05:38:44.044Z,17.20
2022-08-27T05:41:14.404Z,17.20
2022-08-27T05:43:49.674Z,17.20
2022-08-27T05:46:21.701Z,17.20
2022-08-27T05:48:52.642Z,17.20
2022-08-27T05:51:25.849Z,17.30
2022-08-27T05:53:57.315Z,17.30
2022-08-27T05:56:27.902Z,17.40
2022-08-27T05:59:14.631Z,17.40
2022-08-27T06:01:46.801Z,17.50
2022-08-27T06:04:18.168Z,17.50
2022-08-27T06:06:47.242Z,17.60
2022-08-27T06:09:18.487Z,17.60
2022-08-27T06:11:47.181Z,17.70
2022-08-27T06:14:15.817Z,17.70
2022-08-27T06:16:44.343Z,17.70
2022-08-27T06:19:13.327Z,17.70
2022-08-27T06:21:43.949Z,17.80
2022-08-27T06:24:13.828Z,17.70
2022-08-27T06:26:44.351Z,17.80
2022-08-27T06:29:14.103Z,17.80
2022-08-27T06:31:42.899Z,17.90
2022-08-27T06:34:11.981Z,17.90
2022-08-27T06:36:43.309Z,18.00
2022-08-27T06:39:13.745Z,18.00
2022-08-27T06:41:43.826Z,18.00
2022-08-27T06:44:15.438Z,18.10
2022-08-27T06:46:44.513Z,18.10
2022-08-27T06:49:14.103Z,18.20
2022-08-27T06:51:46.779Z,18.30
2022-08-27T06:54:16.830Z,18.40
2022-08-27T06:56:45.641Z,18.50
2022-08-27T06:59:16.416Z,18.70
2022-08-27T07:01:47.340Z,18.70
2022-08-27T07:04:21.836Z,18.80
2022-08-27T07:06:52.463Z,18.80
2022-08-27T07:09:21.670Z,18.90
2022-08-27T07:11:50.142Z,18.90
2022-08-27T07:14:18.999Z,19.00
2022-08-27T07:16:48.226Z,19.10
2022-08-27T07:19:18.052Z,19.20
2022-08-27T07:21:46.504Z,19.30
2022-08-27T07:24:16.403Z,19.40
2022-08-27T07:26:46.572Z,19.50
2022-08-27T07:29:16.117Z,19.80
2022-08-27T07:31:44.573Z,20.10
2022-08-27T07:34:13.018Z,20.60
2022-08-27T07:36:41.900Z,20.70
2022-08-27T07:39:10.435Z,21.10
2022-08-27T07:41:54.171Z,21.40
2022-08-27T07:44:33.036Z,21.70
2022-08-27T07:47:03.458Z,21.90
2022-08-27T07:49:35.239Z,22.00
2022-08-27T07:52:04.615Z,21.90
2022-08-27T07:54:34.304Z,21.90
2022-08-27T07:57:04.830Z,21.80
2022-08-27T07:59:33.277Z,21.70
2022-08-27T08:02:01.782Z,21.60
2022-08-27T08:04:30.313Z,21.60
2022-08-27T08:06:58.833Z,21.50
2022-08-27T08:09:27.275Z,21.50
2022-08-27T08:11:55.887Z,21.40
2022-08-27T08:14:25.839Z,21.30
2022-08-27T08:16:54.425Z,21.30
2022-08-27T08:19:22.904Z,21.20
2022-08-27T08:21:57.165Z,21.10
2022-08-27T08:24:29.007Z,21.10
2022-08-27T08:26:57.437Z,21.00
2022-08-27T08:29:27.259Z,21.10
2022-08-27T08:31:55.637Z,21.10
2022-08-27T08:34:24.120Z,21.10
2022-08-27T08:36:55.084Z,21.30
2022-08-27T08:39:24.031Z,21.60
2022-08-27T08:41:55.164Z,21.90
2022-08-27T08:44:32.535Z,22.10
2022-08-27T08:47:09.456Z,22.30
2022-08-27T08:49:49.848Z,22.40
2022-08-27T08:52:30.609Z,22.50
2022-08-27T08:55:14.362Z,22.40
2022-08-27T08:57:49.914Z,22.50
2022-08-27T09:00:19.790Z,22.60
2022-08-27T09:02:54.239Z,22.60
2022-08-27T09:05:27.764Z,22.60
2022-08-27T09:08:31.843Z,22.60
2022-08-27T09:11:05.144Z,22.60
2022-08-27T09:13:38.980Z,22.70
2022-08-27T09:16:09.663Z,22.70
2022-08-27T09:18:40.817Z,22.90
2022-08-27T09:21:27.770Z,23.00
2022-08-27T09:24:06.619Z,22.90
2022-08-27T09:26:39.193Z,22.90
2022-08-27T09:29:20.755Z,22.80
2022-08-27T09:31:59.152Z,22.80
2022-08-27T09:34:34.910Z,22.80
2022-08-27T09:37:07.307Z,22.90
2022-08-27T09:39:48.443Z,23.00
2022-08-27T09:42:29.288Z,23.10
2022-08-27T09:44:58.920Z,23.10
2022-08-27T09:47:28.744Z,23.00
2022-08-27T09:50:05.731Z,22.90
2022-08-27T09:52:38.676Z,22.60
2022-08-27T09:55:07.980Z,22.40
2022-08-27T09:57:40.586Z,22.30
2022-08-27T10:00:16.256Z,22.20
2022-08-27T10:02:54.229Z,22.10
2022-08-27T10:05:29.057Z,22.10
2022-08-27T10:08:03.082Z,22.10
2022-08-27T10:10:41.700Z,22.20
2022-08-27T10:13:16.307Z,22.40
2022-08-27T10:15:55.831Z,22.30
2022-08-27T10:18:33.754Z,22.50
2022-08-27T10:21:08.081Z,22.50
2022-08-27T10:23:43.216Z,22.60
2022-08-27T10:26:19.364Z,22.60
2022-08-27T10:29:03.928Z,22.50
2022-08-27T10:31:41.691Z,22.60
2022-08-27T10:34:25.696Z,22.50
2022-08-27T10:37:07.312Z,22.40
2022-08-27T10:39:52.815Z,22.40
2022-08-27T10:42:27.587Z,22.30
2022-08-27T10:45:06.419Z,22.10
2022-08-27T10:47:53.799Z,22.00
2022-08-27T10:50:30.060Z,21.90
2022-08-27T10:53:02.668Z,21.80
2022-08-27T10:55:34.484Z,21.90
2022-08-27T10:58:29.979Z,21.80
2022-08-27T11:01:06.506Z,21.90
2022-08-27T11:03:41.000Z,22.00
2022-08-27T11:06:20.584Z,22.10
2022-08-27T11:08:54.848Z,22.10
2022-08-27T11:12:10.500Z,22.20
2022-08-27T11:14:28.652Z,22.30
2022-08-27T11:17:02.887Z,22.30
2022-08-27T11:19:44.000Z,22.40
2022-08-27T11:22:26.195Z,22.60
2022-08-27T11:25:01.657Z,22.70
2022-08-27T11:27:33.226Z,22.80
2022-08-27T11:30:07.093Z,22.90
2022-08-27T11:32:49.165Z,23.10
2022-08-27T11:35:22.569Z,23.00
2022-08-27T11:38:19.408Z,23.10
2022-08-27T11:41:15.885Z,23.00
2022-08-27T11:43:45.648Z,23.20
2022-08-27T11:46:25.049Z,23.50
2022-08-27T11:49:00.570Z,23.60
2022-08-27T11:51:34.254Z,23.70
2022-08-27T11:54:06.960Z,23.50
2022-08-27T11:56:42.521Z,23.10
2022-08-27T11:59:20.927Z,22.80
2022-08-27T12:01:50.263Z,22.60
2022-08-27T12:04:33.262Z,22.50
2022-08-27T12:07:06.505Z,22.40
2022-08-27T12:09:55.310Z,22.30
2022-08-27T12:12:31.576Z,22.30
2022-08-27T12:15:06.095Z,22.40
2022-08-27T12:17:42.288Z,22.40
2022-08-27T12:20:22.459Z,22.50
2022-08-27T12:23:23.683Z,22.60
2022-08-27T12:26:02.403Z,22.80
2022-08-27T12:28:30.848Z,23.10
2022-08-27T12:30:59.646Z,23.40
2022-08-27T12:33:32.831Z,23.40
2022-08-27T12:36:09.649Z,23.50
2022-08-27T12:38:50.617Z,23.50
2022-08-27T12:41:31.925Z,23.60
2022-08-27T12:44:06.488Z,23.50
2022-08-27T12:46:39.646Z,23.50
2022-08-27T12:49:15.774Z,23.40
2022-08-27T12:52:02.713Z,23.50
2022-08-27T12:54:42.744Z,23.40
2022-08-27T12:57:22.306Z,23.50
2022-08-27T13:00:09.067Z,23.50
2022-08-27T13:02:58.632Z,23.60
2022-08-27T13:05:27.436Z,23.70
2022-08-27T13:07:56.889Z,23.90
2022-08-27T13:10:29.300Z,24.00
2022-08-27T13:13:18.192Z,24.10
2022-08-27T13:15:49.556Z,24.10
2022-08-27T13:18:18.703Z,24.10
2022-08-27T13:20:53.328Z,24.00
2022-08-27T13:23:23.996Z,24.00
2022-08-27T13:26:00.300Z,23.90
2022-08-27T13:28:31.303Z,23.80
2022-08-27T13:31:00.933Z,23.70
2022-08-27T13:33:33.197Z,23.70
2022-08-27T13:36:03.715Z,23.70
2022-08-27T13:38:34.948Z,23.80
2022-08-27T13:41:08.071Z,23.90
2022-08-27T13:43:40.281Z,23.90
2022-08-27T13:46:12.966Z,23.90
2022-08-27T13:48:42.841Z,23.90
2022-08-27T13:51:13.087Z,23.90
2022-08-27T13:54:03.910Z,23.90
2022-08-27T13:56:35.514Z,23.90
2022-08-27T13:59:15.183Z,23.90
2022-08-27T14:01:55.151Z,23.90
2022-08-27T14:04:27.158Z,23.90
2022-08-27T14:06:55.794Z,23.80
2022-08-27T14:09:26.927Z,23.70
2022-08-27T14:12:04.123Z,23.70
2022-08-27T14:14:38.984Z,23.60
2022-08-27T14:17:20.509Z,23.50
2022-08-27T14:19:49.591Z,23.50
2022-08-27T14:22:18.791Z,23.60
2022-08-27T14:24:47.366Z,23.60
2022-08-27T14:27:19.984Z,24.00
2022-08-27T14:29:51.378Z,24.00
2022-08-27T14:32:21.003Z,24.10
2022-08-27T14:34:49.536Z,24.20
2022-08-27T14:37:18.140Z,24.10
2022-08-27T14:39:46.715Z,24.00
2022-08-27T14:42:15.235Z,24.00
2022-08-27T14:44:43.679Z,24.00
2022-08-27T14:47:14.516Z,24.00
2022-08-27T14:49:46.166Z,23.90
2022-08-27T14:52:15.650Z,23.90
2022-08-27T14:54:44.612Z,23.90
2022-08-27T14:57:13.267Z,23.90
2022-08-27T14:59:41.832Z,23.90
2022-08-27T15:02:14.445Z,23.80
2022-08-27T15:04:47.221Z,23.80
2022-08-27T15:07:16.674Z,23.70
2022-08-27T15:09:45.388Z,23.70
2022-08-27T15:12:17.790Z,23.60
2022-08-27T15:14:54.872Z,23.70
2022-08-27T15:17:34.535Z,23.60
2022-08-27T15:20:04.813Z,23.60
2022-08-27T15:22:35.596Z,23.50
2022-08-27T15:25:05.700Z,23.40
2022-08-27T15:27:38.407Z,23.30
2022-08-27T15:30:09.862Z,23.10
2022-08-27T15:32:42.772Z,23.00
2022-08-27T15:35:14.912Z,22.90
2022-08-27T15:37:44.552Z,22.80
2022-08-27T15:40:14.481Z,22.70
2022-08-27T15:42:43.392Z,22.70
2022-08-27T15:45:13.398Z,22.70
2022-08-27T15:47:43.443Z,22.60
2022-08-27T15:50:12.212Z,22.50
2022-08-27T15:52:42.309Z,22.50
2022-08-27T15:55:18.778Z,22.50
2022-08-27T15:57:47.549Z,22.40
2022-08-27T16:00:17.703Z,22.40
2022-08-27T16:02:47.701Z,22.30
2022-08-27T16:05:17.777Z,22.40
2022-08-27T16:07:46.872Z,22.30
2022-08-27T16:10:15.900Z,22.40
2022-08-27T16:12:44.492Z,22.40
2022-08-27T16:15:13.819Z,22.50
2022-08-27T16:17:43.129Z,22.60
2022-08-27T16:20:15.297Z,22.70
2022-08-27T16:22:45.006Z,22.70
2022-08-27T16:25:18.297Z,22.60
2022-08-27T16:27:47.213Z,22.50
2022-08-27T16:30:15.683Z,22.50
2022-08-27T16:32:47.109Z,22.40
2022-08-27T16:35:17.229Z,22.30
2022-08-27T16:37:45.681Z,22.20
2022-08-27T16:40:15.986Z,22.10
2022-08-27T16:42:46.689Z,22.00
2022-08-27T16:45:17.531Z,21.80
2022-08-27T16:48:03.587Z,21.70
2022-08-27T16:50:36.046Z,21.60
2022-08-27T16:53:06.982Z,21.50
2022-08-27T16:55:35.878Z,21.40
2022-08-27T16:58:04.916Z,21.30
2022-08-27T17:00:33.491Z,21.30
2022-08-27T17:03:01.998Z,21.20
2022-08-27T17:05:34.038Z,21.10
2022-08-27T17:08:06.392Z,21.10
2022-08-27T17:10:45.714Z,21.10
2022-08-27T17:13:16.117Z,21.00
2022-08-27T17:15:45.610Z,20.90
2022-08-27T17:18:15.655Z,20.90
2022-08-27T17:20:46.357Z,20.90
2022-08-27T17:23:21.642Z,20.80
2022-08-27T17:25:50.557Z,20.80
2022-08-27T17:28:19.624Z,20.70
2022-08-27T17:30:48.158Z,20.70
2022-08-27T17:33:22.983Z,20.70
2022-08-27T17:35:51.833Z,20.60
2022-08-27T17:38:21.671Z,20.60
2022-08-27T17:40:52.246Z,20.60
2022-08-27T17:43:21.601Z,20.60
2022-08-27T17:45:51.157Z,20.60
2022-08-27T17:48:24.834Z,20.60
2022-08-27T17:50:55.217Z,20.50
2022-08-27T17:53:25.383Z,20.50
2022-08-27T17:55:53.854Z,20.40
2022-08-27T17:58:22.340Z,20.50
2022-08-27T18:00:51.281Z,20.40
2022-08-27T18:03:21.235Z,20.30
2022-08-27T18:05:50.139Z,20.40
2022-08-27T18:08:18.696Z,20.30
2022-08-27T18:10:50.495Z,20.30
2022-08-27T18:13:19.903Z,20.20
2022-08-27T18:15:50.200Z,20.10
2022-08-27T18:18:18.685Z,20.10
2022-08-27T18:20:47.169Z,20.00
2022-08-27T18:23:15.780Z,20.00
2022-08-27T18:25:46.146Z,19.90
2022-08-27T18:28:19.555Z,19.90
2022-08-27T18:30:48.467Z,19.80
2022-08-27T18:33:16.968Z,19.70
2022-08-27T18:35:46.508Z,19.70
2022-08-27T18:38:15.039Z,19.70
2022-08-27T18:40:46.903Z,19.60
2022-08-27T18:43:17.683Z,19.50
2022-08-27T18:45:46.460Z,19.50
2022-08-27T18:48:17.563Z,19.50
2022-08-27T18:50:47.701Z,19.40
2022-08-27T18:53:19.791Z,19.30
2022-08-27T18:55:49.415Z,19.30
2022-08-27T18:58:20.231Z,19.20
2022-08-27T19:00:52.224Z,19.10
2022-08-27T19:03:23.802Z,19.10
2022-08-27T19:05:55.038Z,19.00
2022-08-27T19:08:24.989Z,19.00
2022-08-27T19:10:53.425Z,18.90
2022-08-27T19:13:23.403Z,18.90
2022-08-27T19:15:55.771Z,18.80
2022-08-27T19:18:26.346Z,18.80
2022-08-27T19:20:55.340Z,18.70
2022-08-27T19:23:24.629Z,18.70
2022-08-27T19:25:54.164Z,18.60
2022-08-27T19:28:29.535Z,18.70
2022-08-27T19:30:58.047Z,18.50
2022-08-27T19:33:26.491Z,18.50
2022-08-27T19:35:54.883Z,18.50
2022-08-27T19:38:25.524Z,18.40
2022-08-27T19:40:53.952Z,18.40
2022-08-27T19:43:23.777Z,18.30
2022-08-27T19:45:52.503Z,18.40
2022-08-27T19:48:21.152Z,18.40
2022-08-27T19:50:50.867Z,18.20
2022-08-27T19:53:19.509Z,18.20
2022-08-27T19:55:48.269Z,18.10
2022-08-27T19:58:18.526Z,18.10
2022-08-27T20:00:49.148Z,18.10
2022-08-27T20:03:17.666Z,18.10
2022-08-27T20:05:48.247Z,18.00
2022-08-27T20:08:17.148Z,18.00
2022-08-27T20:10:48.260Z,18.00
2022-08-27T20:13:16.805Z,17.90
2022-08-27T20:15:45.457Z,17.90
2022-08-27T20:18:18.620Z,17.80
2022-08-27T20:20:47.164Z,17.80
2022-08-27T20:23:15.710Z,17.70
2022-08-27T20:25:44.620Z,17.70
2022-08-27T20:28:37.611Z,17.60
2022-08-27T20:31:02.552Z,17.60
2022-08-27T20:33:32.375Z,17.60
2022-08-27T20:36:01.421Z,17.50
2022-08-27T20:38:30.072Z,17.50
2022-08-27T20:40:58.502Z,17.40
2022-08-27T20:43:26.971Z,17.40
2022-08-27T20:45:55.476Z,17.30
2022-08-27T20:48:23.997Z,17.30
2022-08-27T20:50:53.880Z,17.20
2022-08-27T20:53:22.438Z,17.20
2022-08-27T20:55:50.896Z,17.30
2022-08-27T20:58:36.852Z,17.10
2022-08-27T21:01:05.695Z,17.10
2022-08-27T21:03:34.292Z,17.00
2022-08-27T21:06:04.295Z,17.00
2022-08-27T21:08:32.776Z,17.00
2022-08-27T21:11:01.345Z,17.00
2022-08-27T21:13:30.209Z,16.90
2022-08-27T21:15:58.696Z,16.90
2022-08-27T21:18:29.936Z,16.90
2022-08-27T21:20:58.829Z,16.90
2022-08-27T21:23:29.131Z,16.90
2022-08-27T21:26:02.228Z,16.80
2022-08-27T21:28:33.058Z,16.80
2022-08-27T21:31:01.675Z,16.70
2022-08-27T21:33:30.088Z,16.70
2022-08-27T21:35:58.519Z,16.70
2022-08-27T21:38:29.857Z,16.60
2022-08-27T21:40:58.410Z,16.70
2022-08-27T21:43:26.915Z,16.60
2022-08-27T21:45:56.127Z,16.50
2022-08-27T21:48:25.276Z,16.50
2022-08-27T21:50:54.216Z,16.50
2022-08-27T21:53:22.915Z,16.50
2022-08-27T21:55:55.029Z,16.50
2022-08-27T21:58:26.554Z,16.40
2022-08-27T22:00:55.685Z,16.30
2022-08-27T22:03:26.006Z,16.30
2022-08-27T22:05:54.719Z,16.30
2022-08-27T22:08:23.806Z,16.30
2022-08-27T22:10:57.827Z,16.30
2022-08-27T22:13:27.333Z,16.20
2022-08-27T22:15:55.973Z,16.20
2022-08-27T22:18:24.748Z,16.10
2022-08-27T22:20:54.300Z,16.20
2022-08-27T22:23:22.947Z,16.10
2022-08-27T22:25:52.783Z,16.10
2022-08-27T22:28:21.306Z,16.00
2022-08-27T22:30:49.713Z,16.10
2022-08-27T22:33:18.919Z,16.00
2022-08-27T22:35:47.364Z,15.90
2022-08-27T22:38:16.105Z,15.90
2022-08-27T22:40:44.994Z,15.90
2022-08-27T22:43:16.271Z,15.80
2022-08-27T22:45:44.703Z,15.80
2022-08-27T22:48:13.452Z,15.80
2022-08-27T22:50:42.169Z,15.80
2022-08-27T22:53:10.920Z,15.80
2022-08-27T22:55:39.568Z,15.70
2022-08-27T22:58:08.089Z,15.70
2022-08-27T23:00:39.374Z,15.70
2022-08-27T23:03:10.135Z,15.60
2022-08-27T23:05:41.803Z,15.60
2022-08-27T23:08:13.207Z,15.60
2022-08-27T23:10:43.561Z,15.60
2022-08-27T23:13:13.159Z,15.60
2022-08-27T23:15:43.049Z,15.50
2022-08-27T23:18:12.017Z,15.50
2022-08-27T23:20:40.731Z,15.40
2022-08-27T23:23:10.125Z,15.40
2022-08-27T23:25:56.635Z,15.40
2022-08-27T23:28:25.092Z,15.40
2022-08-27T23:30:55.049Z,15.30
2022-08-27T23:33:23.786Z,15.30
2022-08-27T23:35:52.382Z,15.30
2022-08-27T23:38:22.371Z,15.20
2022-08-27T23:40:52.123Z,15.20
2022-08-27T23:43:21.952Z,15.20
2022-08-27T23:45:51.489Z,15.20
2022-08-27T23:48:21.397Z,15.10
2022-08-27T23:50:49.906Z,15.10
2022-08-27T23:53:18.434Z,15.10
2022-08-27T23:55:46.898Z,15.10
2022-08-27T23:58:15.362Z,15.00
